Terminal Aerodrome Forecast
Issued by NWS San Angelo, TX

Home | Current Version | Previous Version | Text Only | Print | Product List | Glossary On
Versions: 1 2 3 4 5 6 7 8 9 10 11 12 13 14 15 16 17 18
000
FTUS44 KSJT 050500
TAFABI
TAF
KABI 050520Z 0506/0606 16014G22KT P6SM OVC150
     FM050800 15016G24KT P6SM VCSH BKN020
     FM051200 16017G25KT P6SM OVC012
     FM051700 16020G30KT P6SM -SHRA BKN035=

USA.gov is the U.S. government's official web portal to all federal, state and local government web resources and services.